Time;durP1;ratioP1;P1;durP2;ratioP2;P2;SDS_P1;SDS_P2;PMS_P1;PMS_P2;Temp;Humidity;BMP_temperature;BMP_pressure;BME280_temperature;BME280_humidity;BME280_pressure;Samples;Min_cycle;Max_cycle;Signal;HPM_P1;HPM_P2
2023/09/14 00:01:59;;;;;;;;;;;23.60;61.00;;;;;;1570451;74;781;-69
2023/09/14 00:04:01;;;;;;;;;;;23.70;61.10;;;;;;1569793;74;1908;-68
2023/09/14 00:06:03;;;;;;;;;;;23.70;61.10;;;;;;1566788;74;805;-66
2023/09/14 00:08:05;;;;;;;;;;;23.70;61.10;;;;;;1568678;74;1142;-69
2023/09/14 00:10:08;;;;;;;;;;;23.70;61.00;;;;;;1568577;74;654;-69
2023/09/14 00:12:10;;;;;;;;;;;23.70;61.10;;;;;;1535055;76;852;-69
2023/09/14 00:14:12;;;;;;;;;;;23.60;61.00;;;;;;1537323;76;1599;-67
2023/09/14 00:16:14;;;;;;;;;;;23.70;61.10;;;;;;1534707;76;818;-68
2023/09/14 00:18:16;;;;;;;;;;;23.60;60.90;;;;;;1523082;76;1143;-67
2023/09/14 00:20:20;;;;;;;;;;;23.60;60.90;;;;;;1519808;77;806;-66
2023/09/14 00:22:22;;;;;;;;;;;23.70;61.00;;;;;;1533932;76;873;-68
2023/09/14 00:24:24;;;;;;;;;;;23.60;60.90;;;;;;1528507;76;1977;-69
2023/09/14 00:26:26;;;;;;;;;;;23.70;61.00;;;;;;1506160;77;712;-69
2023/09/14 00:28:28;;;;;;;;;;;23.60;60.90;;;;;;1533747;76;1102;-69
2023/09/14 00:30:30;;;;;;;;;;;23.60;60.90;;;;;;1531116;76;800;-68
2023/09/14 00:32:31;;;;;;;;;;;23.70;61.00;;;;;;1505542;77;751;-68
2023/09/14 00:34:33;;;;;;;;;;;23.70;61.00;;;;;;1541905;76;873;-68
2023/09/14 00:36:35;;;;;;;;;;;23.60;60.90;;;;;;1526636;76;750;-68
2023/09/14 00:38:37;;;;;;;;;;;23.60;60.90;;;;;;1529429;76;690;-65
2023/09/14 00:40:39;;;;;;;;;;;23.60;60.90;;;;;;1517590;77;813;-69
2023/09/14 00:42:44;;;;;;;;;;;23.70;61.00;;;;;;1522248;77;1948;-68
2023/09/14 00:44:46;;;;;;;;;;;23.70;61.00;;;;;;1524128;76;731;-66
2023/09/14 00:46:48;;;;;;;;;;;23.60;60.90;;;;;;1516150;77;1147;-68
2023/09/14 00:48:50;;;;;;;;;;;23.60;60.90;;;;;;1525431;77;633;-68
2023/09/14 00:50:52;;;;;;;;;;;23.70;61.00;;;;;;1513138;76;728;-68
2023/09/14 00:52:56;;;;;;;;;;;23.70;61.00;;;;;;1530914;76;817;-68
2023/09/14 00:54:57;;;;;;;;;;;23.60;60.90;;;;;;1536879;76;737;-69
2023/09/14 00:57:00;;;;;;;;;;;23.70;61.00;;;;;;1528988;76;1155;-70
2023/09/14 00:59:03;;;;;;;;;;;23.70;60.90;;;;;;1528263;76;828;-67
2023/09/14 01:01:05;;;;;;;;;;;23.70;60.90;;;;;;1531292;76;823;-68
2023/09/14 01:03:07;;;;;;;;;;;23.60;60.90;;;;;;1527836;76;1902;-69
2023/09/14 01:05:09;;;;;;;;;;;23.70;61.00;;;;;;1524213;76;727;-69
2023/09/14 01:07:13;;;;;;;;;;;23.60;60.90;;;;;;1537106;76;1131;-65
2023/09/14 01:09:14;;;;;;;;;;;23.60;60.90;;;;;;1533813;76;1803;-68
2023/09/14 01:11:16;;;;;;;;;;;23.60;60.80;;;;;;1502614;77;763;-69
2023/09/14 01:13:20;;;;;;;;;;;23.60;60.80;;;;;;1530322;76;775;-67
2023/09/14 01:15:26;;;;;;;;;;;23.70;60.90;;;;;;1504676;77;1115;-68
2023/09/14 01:17:35;;;;;;;;;;;23.60;60.90;;;;;;1534089;76;1169;-69
2023/09/14 01:19:42;;;;;;;;;;;23.60;60.90;;;;;;1499532;77;762;-68
2023/09/14 01:21:48;;;;;;;;;;;23.60;60.90;;;;;;1541274;76;805;-67
2023/09/14 01:23:55;;;;;;;;;;;23.60;60.90;;;;;;1539614;76;1944;-68
2023/09/14 01:25:57;;;;;;;;;;;23.60;60.90;;;;;;1531766;76;769;-69
2023/09/14 01:28:08;;;;;;;;;;;23.70;61.00;;;;;;1536775;76;1147;-68
2023/09/14 01:30:10;;;;;;;;;;;23.60;60.90;;;;;;1518398;77;754;-69
2023/09/14 01:32:12;;;;;;;;;;;23.60;60.90;;;;;;1538234;76;786;-69
2023/09/14 01:34:14;;;;;;;;;;;23.70;61.00;;;;;;1529806;76;690;-68
2023/09/14 01:36:21;;;;;;;;;;;23.60;60.90;;;;;;1525873;77;768;-68
2023/09/14 01:38:23;;;;;;;;;;;23.60;60.80;;;;;;1524706;77;1134;-66
2023/09/14 01:40:26;;;;;;;;;;;23.60;60.90;;;;;;1505201;77;758;-67
2023/09/14 01:42:28;;;;;;;;;;;23.60;60.90;;;;;;1518674;77;775;-69
2023/09/14 01:44:29;;;;;;;;;;;23.60;60.80;;;;;;1520276;77;1951;-68
2023/09/14 01:46:32;;;;;;;;;;;23.60;60.90;;;;;;1526439;77;765;-67
2023/09/14 01:48:34;;;;;;;;;;;23.60;60.90;;;;;;1516722;77;1085;-69
2023/09/14 01:50:36;;;;;;;;;;;23.60;60.90;;;;;;1513693;77;666;-69
2023/09/14 01:52:38;;;;;;;;;;;23.60;60.90;;;;;;1520161;77;740;-69
2023/09/14 01:54:39;;;;;;;;;;;23.60;60.80;;;;;;1525293;77;743;-69
2023/09/14 01:56:42;;;;;;;;;;;23.60;60.80;;;;;;1521924;78;1156;-68
2023/09/14 01:58:43;;;;;;;;;;;23.60;60.90;;;;;;1520089;76;824;-67
2023/09/14 02:00:45;;;;;;;;;;;23.60;60.80;;;;;;1503697;77;732;-69
2023/09/14 02:02:47;;;;;;;;;;;23.60;60.80;;;;;;1516901;78;767;-67
2023/09/14 02:04:49;;;;;;;;;;;23.60;60.80;;;;;;1511798;78;1922;-68
2023/09/14 02:06:51;;;;;;;;;;;23.60;60.80;;;;;;1530427;76;1561;-67
2023/09/14 02:08:53;;;;;;;;;;;23.60;60.90;;;;;;1511675;77;600;-68
2023/09/14 02:10:55;;;;;;;;;;;23.60;60.80;;;;;;1525461;76;705;-69
2023/09/14 02:12:57;;;;;;;;;;;23.60;60.90;;;;;;1536013;76;732;-68
2023/09/14 02:14:59;;;;;;;;;;;23.60;60.80;;;;;;1516910;78;806;-69
2023/09/14 02:17:01;;;;;;;;;;;23.60;60.80;;;;;;1530511;76;1155;-68
2023/09/14 02:19:02;;;;;;;;;;;23.60;60.90;;;;;;1505491;77;786;-67
2023/09/14 02:21:04;;;;;;;;;;;23.60;60.90;;;;;;1511572;78;701;-68
2023/09/14 02:23:07;;;;;;;;;;;23.60;60.80;;;;;;1514934;78;805;-68
2023/09/14 02:25:09;;;;;;;;;;;23.60;60.80;;;;;;1534727;76;1936;-69
2023/09/14 02:27:11;;;;;;;;;;;23.60;60.80;;;;;;1530094;76;1198;-69
2023/09/14 02:29:13;;;;;;;;;;;23.60;60.90;;;;;;1531453;76;875;-69
2023/09/14 02:31:17;;;;;;;;;;;23.60;60.90;;;;;;1530677;76;785;-68
2023/09/14 02:33:19;;;;;;;;;;;23.60;60.80;;;;;;1532531;76;775;-68
2023/09/14 02:35:21;;;;;;;;;;;23.60;60.90;;;;;;1528319;76;604;-69
2023/09/14 02:37:23;;;;;;;;;;;23.60;60.80;;;;;;1537768;76;1143;-67
2023/09/14 02:39:25;;;;;;;;;;;23.60;60.80;;;;;;1514923;77;726;-69
2023/09/14 02:41:27;;;;;;;;;;;23.60;60.80;;;;;;1528362;76;775;-66
2023/09/14 02:43:28;;;;;;;;;;;23.60;60.80;;;;;;1537361;76;1935;-67
2023/09/14 02:45:30;;;;;;;;;;;23.60;60.80;;;;;;1533934;76;934;-68
2023/09/14 02:47:32;;;;;;;;;;;23.60;60.80;;;;;;1536877;76;1153;-67
2023/09/14 02:49:34;;;;;;;;;;;23.60;60.80;;;;;;1537090;76;730;-68
2023/09/14 02:51:36;;;;;;;;;;;23.60;60.80;;;;;;1534746;76;783;-68
2023/09/14 02:53:38;;;;;;;;;;;23.60;60.90;;;;;;1536450;76;794;-68
2023/09/14 02:55:40;;;;;;;;;;;23.60;60.80;;;;;;1541550;76;726;-68
2023/09/14 02:57:42;;;;;;;;;;;23.60;60.80;;;;;;1505018;77;1159;-68
2023/09/14 02:59:44;;;;;;;;;;;23.60;60.80;;;;;;1538587;76;768;-68
2023/09/14 03:01:46;;;;;;;;;;;23.60;60.80;;;;;;1530703;76;806;-67
2023/09/14 03:03:48;;;;;;;;;;;23.60;60.80;;;;;;1530982;76;1934;-68
2023/09/14 03:05:50;;;;;;;;;;;23.60;60.80;;;;;;1507815;77;774;-68
2023/09/14 03:07:52;;;;;;;;;;;23.60;60.80;;;;;;1570591;74;1167;-68
2023/09/14 03:09:54;;;;;;;;;;;23.60;60.80;;;;;;1567442;74;672;-68
2023/09/14 03:11:56;;;;;;;;;;;23.60;60.80;;;;;;1564558;74;735;-68
2023/09/14 03:13:57;;;;;;;;;;;23.60;60.80;;;;;;1566385;74;765;-68
2023/09/14 03:15:59;;;;;;;;;;;23.60;60.80;;;;;;1565800;74;743;-69
2023/09/14 03:18:01;;;;;;;;;;;23.60;60.80;;;;;;1569885;74;1135;-67
2023/09/14 03:20:06;;;;;;;;;;;23.60;60.80;;;;;;1568153;75;619;-68
2023/09/14 03:22:07;;;;;;;;;;;23.60;60.80;;;;;;1567775;74;1644;-68
2023/09/14 03:24:09;;;;;;;;;;;23.60;60.80;;;;;;1568951;74;1991;-68
2023/09/14 03:26:11;;;;;;;;;;;23.60;60.80;;;;;;1568859;74;740;-68
2023/09/14 03:28:13;;;;;;;;;;;23.60;60.80;;;;;;1568123;74;1177;-69
2023/09/14 03:30:14;;;;;;;;;;;23.60;60.80;;;;;;1568839;74;702;-67
2023/09/14 03:32:16;;;;;;;;;;;23.60;60.70;;;;;;1569940;74;803;-68
2023/09/14 03:34:18;;;;;;;;;;;23.50;60.70;;;;;;1564409;74;769;-68
2023/09/14 03:36:20;;;;;;;;;;;23.60;60.80;;;;;;1569268;74;782;-68
2023/09/14 03:38:22;;;;;;;;;;;23.60;60.80;;;;;;1563403;74;1122;-70
2023/09/14 03:40:24;;;;;;;;;;;23.60;60.80;;;;;;1560378;74;783;-68
2023/09/14 03:42:26;;;;;;;;;;;23.60;60.70;;;;;;1564392;74;789;-68
2023/09/14 03:44:28;;;;;;;;;;;23.50;60.70;;;;;;1559490;74;1912;-68
2023/09/14 03:46:30;;;;;;;;;;;23.50;60.70;;;;;;1568433;74;676;-68
2023/09/14 03:48:32;;;;;;;;;;;23.60;60.80;;;;;;1562883;74;1101;-69
2023/09/14 03:50:33;;;;;;;;;;;23.50;60.70;;;;;;1574854;74;728;-68
2023/09/14 03:52:36;;;;;;;;;;;23.60;60.70;;;;;;1571389;74;779;-68
2023/09/14 03:54:38;;;;;;;;;;;23.60;60.70;;;;;;1565773;74;799;-68
2023/09/14 03:56:40;;;;;;;;;;;23.60;60.70;;;;;;1569009;74;1171;-68
2023/09/14 03:58:42;;;;;;;;;;;23.60;60.70;;;;;;1568401;74;1544;-69
2023/09/14 04:00:44;;;;;;;;;;;23.60;60.70;;;;;;1566192;74;753;-68
2023/09/14 04:02:46;;;;;;;;;;;23.60;60.70;;;;;;1564060;74;747;-68
2023/09/14 04:04:48;;;;;;;;;;;23.50;60.70;;;;;;1569703;74;1930;-68
2023/09/14 04:06:50;;;;;;;;;;;23.60;60.70;;;;;;1567868;74;1148;-68
2023/09/14 04:08:52;;;;;;;;;;;23.50;60.70;;;;;;1555422;74;796;-69
2023/09/14 04:10:54;;;;;;;;;;;23.60;60.70;;;;;;1569267;74;720;-68
2023/09/14 04:13:14;;;;;;;;;;;23.60;60.70;;;;;;1565737;74;673;-68
2023/09/14 04:15:16;;;;;;;;;;;23.50;60.70;;;;;;1565900;74;800;-67
2023/09/14 04:17:18;;;;;;;;;;;23.60;60.60;;;;;;1567227;74;1153;-68
2023/09/14 04:19:20;;;;;;;;;;;23.50;60.60;;;;;;1569234;74;759;-68
2023/09/14 04:21:22;;;;;;;;;;;23.50;60.60;;;;;;1569482;74;791;-68
2023/09/14 04:23:23;;;;;;;;;;;23.50;60.70;;;;;;1567444;74;772;-68
2023/09/14 04:25:25;;;;;;;;;;;23.50;60.70;;;;;;1550090;74;1931;-68
2023/09/14 04:27:27;;;;;;;;;;;23.50;60.70;;;;;;1565030;74;1189;-68
2023/09/14 04:29:30;;;;;;;;;;;23.50;60.60;;;;;;1578467;74;746;-68
2023/09/14 04:31:32;;;;;;;;;;;23.50;60.60;;;;;;1569055;74;727;-67
2023/09/14 04:33:35;;;;;;;;;;;23.50;60.70;;;;;;1575576;74;808;-69
2023/09/14 04:35:37;;;;;;;;;;;23.50;60.60;;;;;;1565540;74;718;-68
2023/09/14 04:37:39;;;;;;;;;;;23.50;60.60;;;;;;1563576;74;1167;-69
2023/09/14 04:39:42;;;;;;;;;;;23.50;60.60;;;;;;1578350;74;849;-67
2023/09/14 04:41:44;;;;;;;;;;;23.50;60.60;;;;;;1569794;74;667;-69
2023/09/14 04:43:46;;;;;;;;;;;23.50;60.50;;;;;;1567315;75;747;-69
2023/09/14 04:45:47;;;;;;;;;;;23.50;60.50;;;;;;1566198;74;1938;-67
2023/09/14 04:47:49;;;;;;;;;;;23.50;60.50;;;;;;1571779;74;1151;-68
2023/09/14 04:49:51;;;;;;;;;;;23.50;60.50;;;;;;1568381;74;690;-68
2023/09/14 04:51:53;;;;;;;;;;;23.50;60.50;;;;;;1565438;74;768;-68
2023/09/14 04:53:55;;;;;;;;;;;23.50;60.50;;;;;;1564590;74;783;-67
2023/09/14 04:55:57;;;;;;;;;;;23.50;60.40;;;;;;1566831;74;1590;-69
2023/09/14 04:57:59;;;;;;;;;;;23.50;60.40;;;;;;1560859;74;1127;-69
2023/09/14 05:00:00;;;;;;;;;;;23.50;60.40;;;;;;1564689;74;882;-68
2023/09/14 05:02:02;;;;;;;;;;;23.50;60.40;;;;;;1570508;74;795;-67
2023/09/14 05:04:04;;;;;;;;;;;23.50;60.40;;;;;;1569029;74;1034;-68
2023/09/14 05:06:07;;;;;;;;;;;23.50;60.40;;;;;;1565854;74;1935;-68
2023/09/14 05:08:08;;;;;;;;;;;23.50;60.30;;;;;;1570137;74;1174;-69
2023/09/14 05:10:10;;;;;;;;;;;23.50;60.30;;;;;;1565919;74;770;-68
2023/09/14 05:12:13;;;;;;;;;;;23.50;60.30;;;;;;1569019;74;794;-68
2023/09/14 05:14:15;;;;;;;;;;;23.50;60.30;;;;;;1570405;74;779;-68
2023/09/14 05:16:17;;;;;;;;;;;23.50;60.30;;;;;;1567370;74;812;-67
2023/09/14 05:18:19;;;;;;;;;;;23.50;60.30;;;;;;1567518;74;1120;-68
2023/09/14 05:20:21;;;;;;;;;;;23.50;60.30;;;;;;1562829;74;788;-69
2023/09/14 05:22:25;;;;;;;;;;;23.50;60.30;;;;;;1570147;74;805;-68
2023/09/14 05:24:27;;;;;;;;;;;23.50;60.30;;;;;;1566941;74;1910;-69
2023/09/14 05:26:29;;;;;;;;;;;23.50;60.30;;;;;;1568384;74;695;-68
2023/09/14 05:28:31;;;;;;;;;;;23.50;60.30;;;;;;1564954;74;1151;-68
2023/09/14 05:30:32;;;;;;;;;;;23.50;60.30;;;;;;1566994;74;797;-68
2023/09/14 05:32:34;;;;;;;;;;;23.50;60.30;;;;;;1566560;74;793;-69
2023/09/14 05:34:37;;;;;;;;;;;23.50;60.30;;;;;;1567071;74;767;-68
2023/09/14 05:36:39;;;;;;;;;;;23.60;60.30;;;;;;1567131;74;1168;-65
2023/09/14 05:38:41;;;;;;;;;;;23.60;60.30;;;;;;1570061;74;767;-68
2023/09/14 05:40:43;;;;;;;;;;;23.60;60.30;;;;;;1567900;74;687;-68
2023/09/14 05:42:45;;;;;;;;;;;23.60;60.30;;;;;;1563281;74;665;-67
2023/09/14 05:44:47;;;;;;;;;;;23.50;60.30;;;;;;1566798;74;1914;-68
2023/09/14 05:46:49;;;;;;;;;;;23.50;60.30;;;;;;1563583;74;1101;-68
2023/09/14 05:48:51;;;;;;;;;;;23.50;60.30;;;;;;1570309;74;769;-68
2023/09/14 05:50:53;;;;;;;;;;;23.50;60.30;;;;;;1566132;74;1549;-68
2023/09/14 05:52:56;;;;;;;;;;;23.50;60.30;;;;;;1556952;74;675;-68
2023/09/14 05:54:58;;;;;;;;;;;23.50;60.40;;;;;;1565100;74;700;-68
2023/09/14 05:56:59;;;;;;;;;;;23.50;60.40;;;;;;1569650;74;1140;-68
2023/09/14 05:59:01;;;;;;;;;;;23.50;60.40;;;;;;1567674;74;926;-68
2023/09/14 06:01:04;;;;;;;;;;;23.50;60.40;;;;;;1568581;74;697;-67
2023/09/14 06:03:06;;;;;;;;;;;23.50;60.40;;;;;;1567056;74;889;-67
2023/09/14 06:05:08;;;;;;;;;;;23.50;60.40;;;;;;1562647;74;1926;-68
2023/09/14 06:07:10;;;;;;;;;;;23.50;60.50;;;;;;1569933;74;1146;-66
2023/09/14 06:09:12;;;;;;;;;;;23.50;60.50;;;;;;1568697;74;672;-68
2023/09/14 06:11:14;;;;;;;;;;;23.50;60.50;;;;;;1566933;74;741;-68
2023/09/14 06:13:18;;;;;;;;;;;23.50;60.50;;;;;;1565192;74;727;-67
2023/09/14 06:15:20;;;;;;;;;;;23.50;60.50;;;;;;1565363;74;686;-67
2023/09/14 06:17:21;;;;;;;;;;;23.50;60.50;;;;;;1566368;74;1102;-67
2023/09/14 06:19:23;;;;;;;;;;;23.50;60.50;;;;;;1576333;74;813;-67
2023/09/14 06:21:25;;;;;;;;;;;23.50;60.50;;;;;;1555751;74;704;-67
2023/09/14 06:23:27;;;;;;;;;;;23.50;60.50;;;;;;1568838;74;577;-67
2023/09/14 06:25:29;;;;;;;;;;;23.40;60.40;;;;;;1564920;74;1936;-67
2023/09/14 06:27:31;;;;;;;;;;;23.40;60.30;;;;;;1566941;74;1188;-65
2023/09/14 06:29:33;;;;;;;;;;;23.50;60.40;;;;;;1561675;74;713;-66
2023/09/14 06:31:34;;;;;;;;;;;23.40;60.30;;;;;;1570069;74;648;-67
2023/09/14 06:33:36;;;;;;;;;;;23.30;60.30;;;;;;1572951;74;810;-67
2023/09/14 06:35:38;;;;;;;;;;;23.40;60.30;;;;;;1558896;74;651;-67
2023/09/14 06:37:40;;;;;;;;;;;23.50;60.40;;;;;;1556662;74;1176;-68
2023/09/14 06:39:42;;;;;;;;;;;23.50;60.40;;;;;;1565916;74;746;-67
2023/09/14 06:41:44;;;;;;;;;;;23.50;60.40;;;;;;1562730;74;746;-67
2023/09/14 06:43:46;;;;;;;;;;;23.50;60.40;;;;;;1563498;74;682;-67
2023/09/14 06:45:48;;;;;;;;;;;23.40;60.30;;;;;;1565661;74;1944;-67
2023/09/14 06:47:50;;;;;;;;;;;23.40;60.30;;;;;;1564664;74;1663;-67
2023/09/14 06:49:52;;;;;;;;;;;23.50;60.40;;;;;;1570142;74;668;-67
2023/09/14 06:51:54;;;;;;;;;;;23.50;60.40;;;;;;1566341;74;704;-67
2023/09/14 06:53:55;;;;;;;;;;;23.40;60.20;;;;;;1560357;74;579;-68
2023/09/14 06:55:57;;;;;;;;;;;23.50;60.40;;;;;;1567024;74;736;-67
2023/09/14 06:57:59;;;;;;;;;;;23.40;60.30;;;;;;1566886;74;1143;-65
2023/09/14 07:00:07;;;;;;;;;;;23.50;60.50;;;;;;1567252;74;828;-67
2023/09/14 07:02:05;;;;;;;;;;;23.50;60.40;;;;;;1563132;74;1641;-67
2023/09/14 07:04:07;;;;;;;;;;;23.50;60.40;;;;;;1564372;74;774;-68
2023/09/14 07:06:09;;;;;;;;;;;23.40;60.30;;;;;;1564462;74;1924;-68
2023/09/14 07:08:11;;;;;;;;;;;23.50;60.40;;;;;;1568312;74;1134;-67
2023/09/14 07:10:13;;;;;;;;;;;23.50;60.40;;;;;;1568027;74;872;-67
2023/09/14 07:12:15;;;;;;;;;;;23.50;60.50;;;;;;1559350;74;664;-67
2023/09/14 07:14:17;;;;;;;;;;;23.50;60.40;;;;;;1570463;74;700;-68
2023/09/14 07:16:19;;;;;;;;;;;23.50;60.40;;;;;;1574079;74;746;-67
2023/09/14 07:18:27;;;;;;;;;;;23.50;60.40;;;;;;1577322;74;1095;-66
2023/09/14 07:20:29;;;;;;;;;;;23.50;60.30;;;;;;1573022;74;753;-65
2023/09/14 07:22:31;;;;;;;;;;;23.40;60.30;;;;;;1565287;74;764;-68
2023/09/14 07:24:33;;;;;;;;;;;23.50;60.40;;;;;;1563301;74;774;-67
2023/09/14 07:26:35;;;;;;;;;;;23.50;60.40;;;;;;1562926;74;1929;-68
2023/09/14 07:28:38;;;;;;;;;;;23.40;60.30;;;;;;1570462;74;1185;-67
2023/09/14 07:30:39;;;;;;;;;;;23.50;60.40;;;;;;1572500;74;774;-68
2023/09/14 07:32:41;;;;;;;;;;;23.50;60.40;;;;;;1557683;74;839;-67
2023/09/14 07:34:43;;;;;;;;;;;23.50;60.30;;;;;;1570085;74;799;-67
2023/09/14 07:36:45;;;;;;;;;;;23.50;60.40;;;;;;1564759;74;1144;-67
2023/09/14 07:38:47;;;;;;;;;;;23.50;60.40;;;;;;1568607;74;681;-67
2023/09/14 07:40:49;;;;;;;;;;;23.50;60.40;;;;;;1567124;74;731;-68
2023/09/14 07:42:51;;;;;;;;;;;23.50;60.40;;;;;;1568428;74;746;-67
2023/09/14 07:44:53;;;;;;;;;;;23.50;60.40;;;;;;1570501;74;1639;-67
2023/09/14 07:46:55;;;;;;;;;;;23.50;60.40;;;;;;1568278;74;1942;-67
2023/09/14 07:48:57;;;;;;;;;;;23.50;60.40;;;;;;1564819;74;773;-66
2023/09/14 07:50:58;;;;;;;;;;;23.50;60.30;;;;;;1563889;74;693;-67
2023/09/14 07:53:03;;;;;;;;;;;23.50;60.30;;;;;;1564900;74;671;-67
2023/09/14 07:55:04;;;;;;;;;;;23.50;60.30;;;;;;1560954;74;1664;-67
2023/09/14 07:57:06;;;;;;;;;;;23.50;60.30;;;;;;1570711;74;1142;-66
2023/09/14 07:59:08;;;;;;;;;;;23.50;60.30;;;;;;1567195;74;750;-67
2023/09/14 08:01:10;;;;;;;;;;;23.50;60.30;;;;;;1567757;74;716;-67
2023/09/14 08:03:13;;;;;;;;;;;23.50;60.40;;;;;;1562985;74;747;-67
2023/09/14 08:05:15;;;;;;;;;;;23.50;60.40;;;;;;1568557;74;614;-68
2023/09/14 08:07:17;;;;;;;;;;;23.50;60.30;;;;;;1558630;74;1938;-67
2023/09/14 08:09:19;;;;;;;;;;;23.50;60.30;;;;;;1566434;74;680;-67
2023/09/14 08:11:21;;;;;;;;;;;23.50;60.30;;;;;;1569595;74;710;-67
2023/09/14 08:13:23;;;;;;;;;;;23.50;60.30;;;;;;1568964;74;611;-65
2023/09/14 08:15:25;;;;;;;;;;;23.50;60.40;;;;;;1566878;74;673;-67
2023/09/14 08:17:27;;;;;;;;;;;23.50;60.30;;;;;;1558998;74;1152;-68
2023/09/14 08:19:28;;;;;;;;;;;23.50;60.40;;;;;;1570860;74;781;-66
2023/09/14 08:21:31;;;;;;;;;;;23.40;60.30;;;;;;1559566;74;929;-67
2023/09/14 08:23:32;;;;;;;;;;;23.40;60.30;;;;;;1569964;74;804;-68
2023/09/14 08:25:35;;;;;;;;;;;23.50;60.40;;;;;;1568053;74;1948;-68
2023/09/14 08:27:40;;;;;;;;;;;23.50;60.40;;;;;;1570288;74;1173;-68
2023/09/14 08:29:43;;;;;;;;;;;23.50;60.40;;;;;;1565594;74;708;-68
2023/09/14 08:31:45;;;;;;;;;;;23.50;60.40;;;;;;1564804;74;783;-66
2023/09/14 08:33:47;;;;;;;;;;;23.50;60.30;;;;;;1530616;76;1168;-67
2023/09/14 08:35:49;;;;;;;;;;;23.50;60.30;;;;;;1564526;74;812;-66
2023/09/14 08:37:54;;;;;;;;;;;23.50;60.30;;;;;;1565662;74;1207;-67
2023/09/14 08:39:56;;;;;;;;;;;23.50;60.30;;;;;;1564194;74;1413;-68
2023/09/14 08:41:58;;;;;;;;;;;23.50;60.30;;;;;;1563096;74;727;-67
2023/09/14 08:44:01;;;;;;;;;;;23.50;60.30;;;;;;1568343;74;765;-68
2023/09/14 08:46:02;;;;;;;;;;;23.50;60.30;;;;;;1568737;75;1912;-67
2023/09/14 08:48:05;;;;;;;;;;;23.50;60.30;;;;;;1570910;74;1137;-67
2023/09/14 08:50:07;;;;;;;;;;;23.40;60.20;;;;;;1568037;74;650;-67
2023/09/14 08:52:09;;;;;;;;;;;23.50;60.40;;;;;;1569227;74;631;-67
2023/09/14 08:54:10;;;;;;;;;;;23.50;60.30;;;;;;1570528;74;793;-68
2023/09/14 08:56:13;;;;;;;;;;;23.50;60.30;;;;;;1564697;74;759;-67
2023/09/14 08:58:15;;;;;;;;;;;23.50;60.30;;;;;;1569203;74;1147;-67
2023/09/14 09:00:17;;;;;;;;;;;23.50;60.30;;;;;;1560826;74;651;-67
2023/09/14 09:02:19;;;;;;;;;;;23.50;60.40;;;;;;1568504;74;692;-67
2023/09/14 09:04:21;;;;;;;;;;;23.50;60.30;;;;;;1568245;74;579;-67
2023/09/14 09:06:23;;;;;;;;;;;23.40;60.20;;;;;;1564188;74;1928;-68
2023/09/14 09:08:25;;;;;;;;;;;23.50;60.20;;;;;;1564012;74;1077;-68
2023/09/14 09:10:27;;;;;;;;;;;23.50;60.30;;;;;;1563455;74;731;-67
2023/09/14 09:12:29;;;;;;;;;;;23.50;60.40;;;;;;1562801;74;753;-67
2023/09/14 09:14:31;;;;;;;;;;;23.50;60.40;;;;;;1562873;74;751;-67
2023/09/14 09:16:33;;;;;;;;;;;23.50;60.30;;;;;;1566928;74;747;-67
2023/09/14 09:18:37;;;;;;;;;;;23.50;60.30;;;;;;1561196;74;1085;-68
2023/09/14 09:20:45;;;;;;;;;;;23.50;60.20;;;;;;1562443;74;782;-67
2023/09/14 09:22:47;;;;;;;;;;;23.50;60.10;;;;;;1563007;74;1600;-67
2023/09/14 09:24:46;;;;;;;;;;;23.60;60.10;;;;;;1568970;74;1213;-66
2023/09/14 09:26:48;;;;;;;;;;;23.50;60.20;;;;;;1570502;74;1907;-66
2023/09/14 09:28:50;;;;;;;;;;;23.50;60.10;;;;;;1569569;74;734;-66
2023/09/14 09:30:55;;;;;;;;;;;23.60;60.10;;;;;;1563249;74;740;-67
2023/09/14 09:32:57;;;;;;;;;;;23.50;60.10;;;;;;1569486;74;742;-68
2023/09/14 09:35:17;;;;;;;;;;;23.60;60.00;;;;;;1570577;74;762;-68
2023/09/14 09:37:19;;;;;;;;;;;23.50;59.90;;;;;;1568261;74;1785;-67
2023/09/14 09:39:21;;;;;;;;;;;23.50;59.90;;;;;;1568213;74;740;-67
2023/09/14 09:41:22;;;;;;;;;;;23.50;59.80;;;;;;1570056;74;818;-66
2023/09/14 09:43:24;;;;;;;;;;;23.60;59.90;;;;;;1568480;74;691;-68
2023/09/14 09:45:26;;;;;;;;;;;23.60;59.80;;;;;;1564326;74;744;-67
2023/09/14 09:47:28;;;;;;;;;;;23.60;59.90;;;;;;1569325;74;1920;-68
2023/09/14 09:49:30;;;;;;;;;;;23.50;59.90;;;;;;1569113;74;682;-68
2023/09/14 09:51:33;;;;;;;;;;;23.50;59.80;;;;;;1575595;74;862;-66
2023/09/14 09:53:35;;;;;;;;;;;23.50;59.70;;;;;;1562476;74;1229;-68
2023/09/14 09:55:37;;;;;;;;;;;23.60;59.60;;;;;;1569695;74;738;-67
2023/09/14 09:57:41;;;;;;;;;;;23.50;59.60;;;;;;1564039;74;1146;-67
2023/09/14 09:59:44;;;;;;;;;;;23.50;59.50;;;;;;1570013;74;1667;-67
2023/09/14 10:01:47;;;;;;;;;;;23.60;59.50;;;;;;1574001;74;795;-66
2023/09/14 10:03:52;;;;;;;;;;;23.60;59.50;;;;;;1568164;74;776;-68
2023/09/14 10:05:53;;;;;;;;;;;23.60;59.40;;;;;;1565857;74;1514;-66
2023/09/14 10:07:56;;;;;;;;;;;23.60;59.40;;;;;;1569504;74;1950;-67
2023/09/14 10:09:58;;;;;;;;;;;23.50;59.40;;;;;;1574373;74;707;-67
2023/09/14 10:12:00;;;;;;;;;;;23.50;59.40;;;;;;1567842;74;602;-68
2023/09/14 10:14:05;;;;;;;;;;;23.60;59.40;;;;;;1565050;74;713;-66
2023/09/14 10:16:07;;;;;;;;;;;23.60;59.50;;;;;;1567747;74;937;-67
2023/09/14 10:18:09;;;;;;;;;;;23.60;59.50;;;;;;1570733;74;1125;-67
2023/09/14 10:20:11;;;;;;;;;;;23.60;59.50;;;;;;1564587;74;744;-67
2023/09/14 10:22:12;;;;;;;;;;;23.50;59.50;;;;;;1559544;74;756;-67
2023/09/14 10:24:14;;;;;;;;;;;23.60;59.40;;;;;;1570410;74;812;-67
2023/09/14 10:26:16;;;;;;;;;;;23.50;59.40;;;;;;1570389;74;1942;-67
2023/09/14 10:28:20;;;;;;;;;;;23.60;59.40;;;;;;1564671;74;1157;-66
2023/09/14 10:30:22;;;;;;;;;;;23.60;59.40;;;;;;1570668;74;802;-67
2023/09/14 10:32:25;;;;;;;;;;;23.60;59.40;;;;;;1571052;74;1520;-67
2023/09/14 10:34:27;;;;;;;;;;;23.50;59.40;;;;;;1560118;74;729;-67
2023/09/14 10:36:32;;;;;;;;;;;23.50;59.40;;;;;;1565726;74;804;-67
2023/09/14 10:38:34;;;;;;;;;;;23.50;59.40;;;;;;1569400;74;1138;-67
2023/09/14 10:40:40;;;;;;;;;;;23.60;59.40;;;;;;1564462;74;760;-67
2023/09/14 10:42:41;;;;;;;;;;;23.60;59.40;;;;;;1561922;74;1239;-67
2023/09/14 10:44:42;;;;;;;;;;;23.60;59.50;;;;;;1569109;74;728;-67
2023/09/14 10:46:44;;;;;;;;;;;23.60;59.40;;;;;;1570504;74;1932;-69
2023/09/14 10:48:46;;;;;;;;;;;23.60;59.40;;;;;;1569241;74;738;-66
2023/09/14 10:50:51;;;;;;;;;;;23.50;59.40;;;;;;1570252;74;784;-66
2023/09/14 10:52:53;;;;;;;;;;;23.60;59.40;;;;;;1565129;74;793;-68
2023/09/14 10:54:55;;;;;;;;;;;23.60;59.40;;;;;;1565780;74;793;-67
2023/09/14 10:56:57;;;;;;;;;;;23.60;59.50;;;;;;1565383;74;1212;-68
2023/09/14 10:58:59;;;;;;;;;;;23.60;59.40;;;;;;1570087;74;813;-68
2023/09/14 11:01:01;;;;;;;;;;;23.60;59.40;;;;;;1566988;74;808;-68
2023/09/14 11:03:03;;;;;;;;;;;23.60;59.50;;;;;;1570015;74;700;-67
2023/09/14 11:05:15;;;;;;;;;;;23.60;59.50;;;;;;1559532;74;674;-67
2023/09/14 11:07:18;;;;;;;;;;;23.60;59.20;;;;;;1568339;74;1920;-67
2023/09/14 11:09:23;;;;;;;;;;;23.60;59.00;;;;;;1560067;74;1873;-67
2023/09/14 11:11:27;;;;;;;;;;;23.60;59.10;;;;;;1567740;74;829;-67
2023/09/14 11:13:30;;;;;;;;;;;23.60;59.10;;;;;;1566040;74;1925;-67
2023/09/14 11:15:34;;;;;;;;;;;23.60;59.10;;;;;;1569914;74;721;-67
2023/09/14 11:17:37;;;;;;;;;;;23.60;59.10;;;;;;1568712;74;1152;-68
2023/09/14 11:19:45;;;;;;;;;;;23.60;59.10;;;;;;1567765;74;878;-68
2023/09/14 11:21:47;;;;;;;;;;;23.60;59.00;;;;;;1571798;74;766;-68
2023/09/14 11:23:49;;;;;;;;;;;23.60;59.00;;;;;;1567008;74;803;-68
2023/09/14 11:25:51;;;;;;;;;;;23.60;59.00;;;;;;1564020;74;746;-68
2023/09/14 11:27:53;;;;;;;;;;;23.50;58.90;;;;;;1565612;74;1934;-68
2023/09/14 11:29:56;;;;;;;;;;;23.60;58.90;;;;;;1567610;74;1669;-68
2023/09/14 11:31:59;;;;;;;;;;;23.60;58.90;;;;;;1566146;74;791;-67
2023/09/14 11:34:05;;;;;;;;;;;23.60;59.00;;;;;;1570120;74;707;-65
2023/09/14 11:36:06;;;;;;;;;;;23.60;59.00;;;;;;1567471;74;808;-68
2023/09/14 11:38:19;;;;;;;;;;;23.60;59.10;;;;;;1563109;74;1220;-67
2023/09/14 11:40:21;;;;;;;;;;;23.60;59.20;;;;;;1566843;74;766;-67
2023/09/14 11:42:23;;;;;;;;;;;23.60;59.20;;;;;;1535034;76;1200;-67
2023/09/14 11:44:28;;;;;;;;;;;23.60;59.40;;;;;;1503319;77;829;-68
2023/09/14 11:46:29;;;;;;;;;;;23.60;59.40;;;;;;1530828;77;1502;-65
2023/09/14 11:48:35;;;;;;;;;;;23.50;59.40;;;;;;1530436;77;1932;-67
2023/09/14 11:50:37;;;;;;;;;;;23.60;59.40;;;;;;1528512;76;734;-67
2023/09/14 11:52:39;;;;;;;;;;;23.50;59.40;;;;;;1531983;77;670;-67
2023/09/14 11:54:42;;;;;;;;;;;23.60;59.20;;;;;;1532006;77;796;-68
2023/09/14 11:56:44;;;;;;;;;;;23.60;59.20;;;;;;1526844;76;1142;-68
2023/09/14 11:58:46;;;;;;;;;;;23.60;59.20;;;;;;1532541;77;713;-67
2023/09/14 12:00:49;;;;;;;;;;;23.60;59.00;;;;;;1522927;77;649;-68
2023/09/14 12:02:51;;;;;;;;;;;23.60;59.00;;;;;;1530675;76;668;-66
2023/09/14 12:04:53;;;;;;;;;;;23.60;59.00;;;;;;1525833;76;728;-67
2023/09/14 12:06:55;;;;;;;;;;;23.60;59.00;;;;;;1523482;76;1928;-68
2023/09/14 12:08:57;;;;;;;;;;;23.60;59.10;;;;;;1527014;76;694;-68
2023/09/14 12:10:59;;;;;;;;;;;23.60;59.10;;;;;;1529133;77;676;-68